Time;durP1;ratioP1;P1;durP2;ratioP2;P2;SDS_P1;SDS_P2;PMS_P1;PMS_P2;Temp;Humidity;BMP_temperature;BMP_pressure;BME280_temperature;BME280_humidity;BME280_pressure;Samples;Min_cycle;Max_cycle;Signal;HPM_P1;HPM_P2
2022/11/29 00:01:04;;;;;;;12.55;3.75;;;;;;;6.77;100.00;101579.25;5096813;27;97514;-31
2022/11/29 00:03:29;;;;;;;9.75;4.97;;;;;;;6.74;100.00;101579.31;5077934;27;100820;-32
2022/11/29 00:05:55;;;;;;;8.73;5.07;;;;;;;6.72;100.00;101575.84;5096622;27;96484;-31
2022/11/29 00:08:22;;;;;;;10.77;4.88;;;;;;;6.70;100.00;101580.38;5097101;27;96919;-31
2022/11/29 00:10:47;;;;;;;7.72;4.03;;;;;;;6.66;100.00;101580.53;5078040;27;101493;-31
2022/11/29 00:13:13;;;;;;;9.52;5.18;;;;;;;6.61;100.00;101578.00;5096823;27;97783;-32
2022/11/29 00:15:38;;;;;;;7.65;4.25;;;;;;;6.58;100.00;101580.78;5097387;27;96423;-31
2022/11/29 00:18:06;;;;;;;6.25;3.92;;;;;;;6.57;100.00;101579.03;5096757;27;96785;-32
2022/11/29 00:20:33;;;;;;;7.38;4.40;;;;;;;6.57;100.00;101592.47;5076930;27;101387;-31
2022/11/29 00:22:58;;;;;;;7.05;3.38;;;;;;;6.50;100.00;101589.09;5077886;27;100938;-31
2022/11/29 00:25:24;;;;;;;7.38;3.88;;;;;;;6.50;100.00;101590.91;5096626;27;96481;-31
2022/11/29 00:27:50;;;;;;;13.68;4.45;;;;;;;6.51;100.00;101598.06;5096803;27;96643;-31
2022/11/29 00:30:16;;;;;;;17.48;4.40;;;;;;;6.48;100.00;101590.94;5096219;27;99368;-31
2022/11/29 00:32:41;;;;;;;5.97;3.40;;;;;;;6.47;100.00;101596.41;5096305;27;97477;-32
2022/11/29 00:35:07;;;;;;;7.15;3.60;;;;;;;6.46;100.00;101594.63;5096604;27;96605;-31
2022/11/29 00:37:32;;;;;;;11.40;5.35;;;;;;;6.41;100.00;101597.47;5096489;27;96914;-32
2022/11/29 00:39:57;;;;;;;9.25;3.58;;;;;;;6.39;100.00;101588.59;5096342;27;98059;-31
2022/11/29 00:42:23;;;;;;;9.80;5.03;;;;;;;6.40;100.00;101597.53;5096229;27;101262;-31
2022/11/29 00:44:48;;;;;;;10.02;4.82;;;;;;;6.36;100.00;101596.75;5096103;27;96584;-31
2022/11/29 00:47:13;;;;;;;7.78;4.28;;;;;;;6.32;100.00;101592.41;5096042;27;101467;-32
2022/11/29 00:49:39;;;;;;;10.10;5.07;;;;;;;6.32;100.00;101593.28;5095614;27;99459;-31
2022/11/29 00:52:04;;;;;;;9.80;3.83;;;;;;;6.30;100.00;101597.81;5096266;27;97783;-31
2022/11/29 00:54:30;;;;;;;5.93;3.22;;;;;;;6.28;100.00;101597.00;5077874;27;96666;-31
2022/11/29 00:56:55;;;;;;;5.30;3.25;;;;;;;6.24;100.00;101589.06;5096551;27;96735;-31
2022/11/29 00:59:21;;;;;;;8.90;3.80;;;;;;;6.20;100.00;101599.06;5096119;27;96796;-31
2022/11/29 01:01:46;;;;;;;9.10;3.50;;;;;;;6.21;99.98;101600.81;5096490;27;97359;-31
2022/11/29 01:04:11;;;;;;;7.45;4.53;;;;;;;6.18;100.00;101600.91;5095721;27;99270;-31
2022/11/29 01:06:37;;;;;;;4.35;2.90;;;;;;;6.15;100.00;101592.94;5096258;27;96767;-31
2022/11/29 01:09:03;;;;;;;11.23;4.10;;;;;;;6.14;99.96;101596.53;5095270;27;97454;-31
2022/11/29 01:11:28;;;;;;;5.22;2.75;;;;;;;6.07;99.92;101597.66;5077103;27;100874;-31
2022/11/29 01:13:57;;;;;;;4.72;2.90;;;;;;;6.04;100.00;101601.31;5095888;27;96612;-31
2022/11/29 01:16:24;;;;;;;8.10;4.28;;;;;;;6.02;100.00;101597.78;5077510;27;96832;-33
2022/11/29 01:18:49;;;;;;;4.93;3.03;;;;;;;6.02;100.00;101607.69;5078270;27;100441;-31
2022/11/29 01:21:18;;;;;;;5.88;3.35;;;;;;;6.01;100.00;101606.81;5098953;27;97805;-31
2022/11/29 01:23:44;;;;;;;4.28;3.00;;;;;;;5.94;100.00;101602.53;5099546;27;96615;-31
2022/11/29 01:26:15;;;;;;;5.55;3.17;;;;;;;5.95;99.59;101613.22;5099723;27;96823;-31
2022/11/29 01:28:41;;;;;;;3.97;2.38;;;;;;;5.92;99.85;101610.59;5080491;27;101006;-31
2022/11/29 01:31:09;;;;;;;7.97;3.13;;;;;;;5.89;100.00;101613.41;5080229;27;99298;-31
2022/11/29 01:33:35;;;;;;;4.15;2.67;;;;;;;5.87;100.00;101609.00;5080277;27;96583;-31
2022/11/29 01:36:01;;;;;;;3.50;2.50;;;;;;;5.84;99.58;101612.66;5099480;27;96689;-31
2022/11/29 01:38:26;;;;;;;6.55;2.90;;;;;;;5.82;99.63;101611.81;5080385;27;100778;-31
2022/11/29 01:41:05;;;;;;;5.95;2.88;;;;;;;5.83;100.00;101618.06;5098819;27;99378;-31
2022/11/29 01:43:32;;;;;;;7.00;3.33;;;;;;;5.78;99.87;101615.50;5099456;27;96601;-31
2022/11/29 01:45:57;;;;;;;6.78;3.35;;;;;;;5.76;100.00;101622.75;5080767;27;96771;-31
2022/11/29 01:48:29;;;;;;;8.07;4.15;;;;;;;5.77;99.78;101626.31;5098552;27;104368;-31
2022/11/29 01:50:59;;;;;;;9.45;3.03;;;;;;;5.74;99.85;101627.28;5099407;27;98259;-31
2022/11/29 01:53:24;;;;;;;8.77;4.05;;;;;;;5.72;99.92;101631.81;5080379;27;96602;-31
2022/11/29 01:55:55;;;;;;;10.18;4.28;;;;;;;5.70;100.00;101634.56;5099279;27;96731;-31
2022/11/29 01:58:21;;;;;;;6.47;3.33;;;;;;;5.68;100.00;101638.22;5079608;27;100951;-31
2022/11/29 02:00:47;;;;;;;9.02;3.70;;;;;;;5.67;99.93;101634.66;5080131;27;101104;-31
2022/11/29 02:03:15;;;;;;;6.30;3.13;;;;;;;5.67;100.00;101640.03;5080446;27;96790;-31
2022/11/29 02:05:49;;;;;;;6.28;3.63;;;;;;;5.66;99.94;101640.06;5099063;27;96743;-31
2022/11/29 02:08:21;;;;;;;8.95;4.15;;;;;;;5.61;99.48;101642.88;5079925;27;100816;-31
2022/11/29 02:11:05;;;;;;;;;;;;;;;5.64;99.69;101647.28;5080186;27;100702;-31
2022/11/29 02:13:49;;;;;;;2.83;1.90;;;;;;;5.62;99.60;101646.44;5098767;27;96900;-31
2022/11/29 02:16:26;;;;;;;8.23;3.55;;;;;;;5.55;99.62;101645.72;5099099;27;96657;-31
2022/11/29 02:18:57;;;;;;;5.53;3.67;;;;;;;5.57;99.62;101651.06;5079659;27;101554;-31
2022/11/29 02:21:38;;;;;;;3.60;2.23;;;;;;;5.56;99.76;101652.88;5079184;27;100861;-31
2022/11/29 02:24:35;;;;;;;12.48;3.88;;;;;;;5.56;99.74;101657.38;5098314;27;96578;-31
2022/11/29 02:27:06;;;;;;;7.38;3.30;;;;;;;5.53;99.75;101653.84;5098565;27;96775;-31
2022/11/29 02:30:05;;;;;;;5.63;3.05;;;;;;;5.52;99.70;101649.38;5097707;27;99329;-31
2022/11/29 02:32:40;;;;;;;7.03;3.53;;;;;;;5.51;99.91;101661.06;5098417;27;97814;-31
2022/11/29 02:35:23;;;;;;;6.32;3.47;;;;;;;5.50;100.00;101667.34;5098378;27;96625;-31
2022/11/29 02:38:27;;;;;;;9.05;4.07;;;;;;;5.50;99.98;101661.09;5098301;27;96636;-31
2022/11/29 02:41:10;;;;;;;7.25;3.15;;;;;;;5.55;100.00;101675.28;5098356;27;97994;-31
2022/11/29 02:43:56;;;;;;;4.13;2.58;;;;;;;5.54;100.00;101677.09;5098658;27;97956;-31
2022/11/29 02:46:43;;;;;;;6.60;3.67;;;;;;;5.59;100.00;101681.47;5079774;27;96581;-31
2022/11/29 02:49:37;;;;;;;7.97;4.00;;;;;;;5.59;100.00;101679.66;5098376;27;96611;-31
2022/11/29 02:52:23;;;;;;;11.38;4.40;;;;;;;5.63;100.00;101683.16;5097490;27;97692;-31
2022/11/29 02:55:08;;;;;;;5.47;2.53;;;;;;;5.66;100.00;101693.81;5079179;27;100943;-31
2022/11/29 02:57:52;;;;;;;5.95;2.63;;;;;;;5.70;100.00;101687.44;5079590;27;96544;-31
2022/11/29 03:00:20;;;;;;;6.38;3.08;;;;;;;5.69;100.00;101685.66;5098219;27;96695;-31
2022/11/29 03:03:07;;;;;;;6.53;2.80;;;;;;;5.75;100.00;101694.44;5078936;27;100779;-31
2022/11/29 03:05:49;;;;;;;4.75;2.78;;;;;;;5.79;100.00;101689.84;5097976;27;97822;-31
2022/11/29 03:08:38;;;;;;;8.82;4.43;;;;;;;5.80;100.00;101690.75;5079243;27;96669;-31
2022/11/29 03:11:28;;;;;;;8.77;4.22;;;;;;;5.82;100.00;101694.28;5098194;27;96603;-32
2022/11/29 03:14:25;;;;;;;7.88;3.83;;;;;;;5.83;100.00;101699.59;5078704;27;101371;-31
2022/11/29 03:17:09;;;;;;;7.57;3.60;;;;;;;5.84;100.00;101703.16;5097648;27;97766;-31
2022/11/29 03:20:01;;;;;;;6.13;3.65;;;;;;;5.85;100.00;101704.94;5078209;27;96672;-31
2022/11/29 03:22:29;;;;;;;4.53;3.03;;;;;;;5.87;100.00;101706.66;5097306;27;96837;-31
2022/11/29 03:24:57;;;;;;;8.73;3.53;;;;;;;5.88;100.00;101716.47;5097431;27;98114;-31
2022/11/29 03:28:07;;;;;;;10.80;4.50;;;;;;;5.88;100.00;101713.78;5097504;27;97953;-31
2022/11/29 03:30:37;;;;;;;6.65;2.55;;;;;;;5.88;100.00;101710.22;5079084;27;97070;-31
2022/11/29 03:33:11;;;;;;;8.10;4.03;;;;;;;5.88;100.00;101715.59;5097596;27;97120;-31
2022/11/29 03:36:12;;;;;;;6.85;3.90;;;;;;;5.87;100.00;101712.03;5078725;27;98981;-31
2022/11/29 03:38:43;;;;;;;3.55;2.28;;;;;;;5.89;100.00;101712.88;5078893;27;100985;-31
2022/11/29 03:41:11;;;;;;;6.47;3.45;;;;;;;5.88;100.00;101719.16;5078163;27;96658;-31
2022/11/29 03:43:59;;;;;;;11.18;4.07;;;;;;;5.89;100.00;101717.38;5097606;27;96810;-31
2022/11/29 03:46:37;;;;;;;4.65;2.85;;;;;;;5.86;100.00;101721.00;5077786;27;100877;-32
2022/11/29 03:49:09;;;;;;;4.80;3.33;;;;;;;5.84;100.00;101721.97;5078303;27;100939;-31
2022/11/29 03:51:47;;;;;;;3.85;2.83;;;;;;;5.86;100.00;101722.81;5078842;27;96583;-31
2022/11/29 03:54:20;;;;;;;3.30;2.55;;;;;;;5.83;100.00;101723.78;5097506;27;96542;-31
2022/11/29 03:56:45;;;;;;;5.20;2.70;;;;;;;5.84;100.00;101730.94;5078289;27;101498;-31
2022/11/29 03:59:42;;;;;;;4.25;2.67;;;;;;;5.82;100.00;101735.50;5096497;27;98572;-31
2022/11/29 04:02:44;;;;;;;5.30;3.15;;;;;;;5.82;100.00;101743.56;5078675;27;97336;-31
2022/11/29 04:05:31;;;;;;;5.45;2.95;;;;;;;5.82;100.00;101738.19;5078616;27;96859;-32
2022/11/29 04:08:06;;;;;;;7.85;3.20;;;;;;;5.81;100.00;101744.47;5096795;27;97527;-31
2022/11/29 04:10:44;;;;;;;5.72;2.47;;;;;;;5.78;100.00;101744.56;5078180;27;100859;-31
2022/11/29 04:13:39;;;;;;;4.10;2.95;;;;;;;5.74;100.00;101748.22;5096683;27;96607;-31
2022/11/29 04:16:25;;;;;;;5.57;2.97;;;;;;;5.72;100.00;101742.00;5097115;27;96567;-31
2022/11/29 04:19:09;;;;;;;5.95;3.38;;;;;;;5.68;100.00;101740.34;5077703;27;101347;-31
2022/11/29 04:21:55;;;;;;;4.43;2.30;;;;;;;5.67;100.00;101743.94;5096146;27;97852;-31
2022/11/29 04:24:39;;;;;;;5.90;2.78;;;;;;;5.66;100.00;101750.25;5096756;27;96481;-31
2022/11/29 04:27:40;;;;;;;4.10;2.28;;;;;;;5.63;100.00;101753.03;5096719;27;96924;-31
2022/11/29 04:30:24;;;;;;;3.45;2.50;;;;;;;5.61;100.00;101752.19;5096531;27;97903;-31
2022/11/29 04:33:14;;;;;;;2.88;1.88;;;;;;;5.64;99.76;101755.66;5078167;27;101065;-31
2022/11/29 04:35:54;;;;;;;4.88;1.73;;;;;;;5.60;100.00;101756.69;5096861;27;96581;-31
2022/11/29 04:38:34;;;;;;;5.10;2.72;;;;;;;5.65;100.00;101767.28;5078041;27;96709;-31
2022/11/29 04:41:24;;;;;;;3.50;1.88;;;;;;;5.67;100.00;101773.50;5095852;27;98678;-31
2022/11/29 04:44:14;;;;;;;5.28;2.72;;;;;;;5.69;100.00;101763.59;5096427;27;97916;-31
2022/11/29 04:46:50;;;;;;;3.67;2.00;;;;;;;5.68;100.00;101767.22;5096471;27;96717;-31
2022/11/29 04:49:26;;;;;;;3.85;2.15;;;;;;;5.69;100.00;101771.66;5077848;27;96756;-31
2022/11/29 04:52:31;;;;;;;2.22;1.45;;;;;;;5.75;100.00;101774.22;5077418;27;100976;-31
2022/11/29 04:55:34;;;;;;;3.63;2.22;;;;;;;5.77;100.00;101775.06;5077006;27;100729;-31
2022/11/29 04:58:30;;;;;;;4.63;2.58;;;;;;;5.80;100.00;101774.97;5096498;27;96426;-31
2022/11/29 05:01:05;;;;;;;3.45;2.22;;;;;;;5.79;100.00;101775.00;5096855;27;96644;-32
2022/11/29 05:03:57;;;;;;;5.60;2.45;;;;;;;5.81;100.00;101776.72;5077376;27;100802;-31
2022/11/29 05:06:32;;;;;;;3.13;2.37;;;;;;;5.81;100.00;101776.72;5090541;27;98365;-29
2022/11/29 05:09:20;;;;;;;4.88;2.72;;;;;;;5.86;100.00;101787.34;5095756;27;96549;-30
2022/11/29 05:11:53;;;;;;;4.75;2.78;;;;;;;5.87;100.00;101783.75;5077627;27;96852;-29
2022/11/29 05:14:53;;;;;;;6.20;3.40;;;;;;;5.89;100.00;101781.91;5076932;27;101520;-30
2022/11/29 05:17:49;;;;;;;3.75;2.33;;;;;;;5.89;100.00;101785.47;5095900;27;98028;-30
2022/11/29 05:20:33;;;;;;;4.55;3.10;;;;;;;5.93;100.00;101784.47;5076970;27;96842;-30
2022/11/29 05:23:07;;;;;;;5.10;3.60;;;;;;;5.95;100.00;101790.72;5077420;27;96718;-30
2022/11/29 05:25:44;;;;;;;6.78;3.25;;;;;;;5.98;100.00;101791.53;5095675;27;98513;-31
2022/11/29 05:28:41;;;;;;;3.90;2.67;;;;;;;5.97;100.00;101789.81;5077206;27;100885;-30
2022/11/29 05:31:54;;;;;;;5.10;2.67;;;;;;;6.00;100.00;101801.34;5077293;27;96642;-29
2022/11/29 05:34:24;;;;;;;5.03;2.90;;;;;;;5.99;100.00;101799.59;5012152;28;96947;-30
2022/11/29 05:37:08;;;;;;;4.00;2.35;;;;;;;6.04;100.00;101807.53;5061019;27;101447;-30
2022/11/29 05:39:58;;;;;;;7.05;3.45;;;;;;;6.05;100.00;101817.34;5095754;27;97298;-30
2022/11/29 05:42:35;;;;;;;4.60;2.85;;;;;;;6.06;100.00;101813.75;5095868;27;96534;-30
2022/11/29 05:45:21;;;;;;;6.20;3.42;;;;;;;6.08;100.00;101818.16;5095827;27;96509;-30
2022/11/29 05:48:02;;;;;;;6.68;3.25;;;;;;;6.08;100.00;101819.97;5076736;27;100966;-30
2022/11/29 05:50:42;;;;;;;9.85;2.78;;;;;;;6.08;100.00;101815.47;5076756;27;100904;-30
2022/11/29 05:53:15;;;;;;;5.65;3.38;;;;;;;6.12;100.00;101827.91;5077188;27;96630;-30
2022/11/29 05:56:11;;;;;;;7.30;3.35;;;;;;;6.13;100.00;101828.81;5076972;27;96773;-29
2022/11/29 05:58:54;;;;;;;5.13;2.83;;;;;;;6.15;100.00;101835.03;5095379;27;98040;-30
2022/11/29 06:01:53;;;;;;;3.45;2.58;;;;;;;6.16;100.00;101834.09;5095463;27;97321;-29
2022/11/29 06:04:39;;;;;;;5.93;2.75;;;;;;;6.19;100.00;101843.88;5077038;27;96575;-30
2022/11/29 06:07:13;;;;;;;4.78;3.05;;;;;;;6.22;100.00;101849.16;5080557;27;96754;-30
2022/11/29 06:09:46;;;;;;;10.15;2.97;;;;;;;6.24;100.00;101848.19;5098714;27;98077;-29
2022/11/29 06:12:18;;;;;;;3.58;2.60;;;;;;;6.25;100.00;101849.09;5080023;27;101166;-30
2022/11/29 06:14:49;;;;;;;5.47;2.92;;;;;;;6.29;100.00;101862.44;5079979;27;96629;-29
2022/11/29 06:17:17;;;;;;;6.15;3.30;;;;;;;6.29;100.00;101859.75;5098874;27;96424;-29
2022/11/29 06:20:07;;;;;;;5.20;2.92;;;;;;;6.28;100.00;101865.16;5098271;27;97957;-29
2022/11/29 06:22:33;;;;;;;5.13;3.20;;;;;;;6.29;100.00;101878.59;5080104;27;101093;-30
2022/11/29 06:25:34;;;;;;;7.10;2.22;;;;;;;6.31;100.00;101870.44;5098513;27;96516;-30
2022/11/29 06:28:38;;;;;;;3.95;2.60;;;;;;;6.31;100.00;101879.38;5080181;27;96681;-31
2022/11/29 06:31:09;;;;;;;9.77;2.92;;;;;;;6.32;100.00;101877.59;4994008;28;97967;-30
2022/11/29 06:33:57;;;;;;;6.25;2.97;;;;;;;6.32;100.00;101881.19;4994884;28;97444;-32
2022/11/29 06:36:55;;;;;;;8.57;2.72;;;;;;;6.37;100.00;101875.66;5043733;27;96742;-30
2022/11/29 06:39:21;;;;;;;8.40;3.53;;;;;;;6.38;100.00;101877.41;5065049;27;96861;-30
2022/11/29 06:41:47;;;;;;;10.25;4.03;;;;;;;6.40;100.00;101883.66;5079389;27;101883;-30
2022/11/29 06:44:13;;;;;;;7.15;4.15;;;;;;;6.41;100.00;101882.72;5098042;27;97439;-29
2022/11/29 06:46:46;;;;;;;7.63;4.28;;;;;;;6.44;100.00;101896.09;5079769;27;96587;-31
2022/11/29 06:49:17;;;;;;;16.80;4.95;;;;;;;6.45;100.00;101903.25;5080097;27;96718;-29
2022/11/29 06:52:27;;;;;;;12.95;4.63;;;;;;;6.48;100.00;101899.56;5079262;27;101155;-29
2022/11/29 06:55:32;;;;;;;8.07;3.97;;;;;;;6.48;100.00;101913.91;5071303;27;97842;-30
2022/11/29 06:58:03;;;;;;;8.23;2.95;;;;;;;6.50;100.00;101917.44;5097063;27;96746;-29
2022/11/29 07:00:48;;;;;;;7.83;3.87;;;;;;;6.47;100.00;101906.78;5098035;27;96831;-29
2022/11/29 07:03:28;;;;;;;6.43;3.17;;;;;;;6.52;100.00;101926.38;5079182;27;100094;-29
2022/11/29 07:05:55;;;;;;;11.70;4.82;;;;;;;6.51;100.00;101916.53;5097665;27;99158;-30
2022/11/29 07:08:22;;;;;;;9.30;4.82;;;;;;;6.53;100.00;101913.78;5079177;27;96638;-29
2022/11/29 07:10:51;;;;;;;8.65;5.45;;;;;;;6.57;100.00;101926.25;5079136;27;96905;-30
2022/11/29 07:13:18;;;;;;;8.98;5.85;;;;;;;6.55;100.00;101929.00;5097264;27;99183;-30
2022/11/29 07:15:58;;;;;;;12.93;5.53;;;;;;;6.58;100.00;101926.22;5077865;27;102225;-30
2022/11/29 07:18:43;;;;;;;7.38;4.35;;;;;;;6.58;100.00;101933.41;5097602;27;96719;-30
2022/11/29 07:21:47;;;;;;;11.55;5.00;;;;;;;6.59;100.00;101935.16;5077416;27;97121;-31
2022/11/29 07:24:34;;;;;;;9.45;4.80;;;;;;;6.58;100.00;101939.66;5073998;27;101320;-29
2022/11/29 07:27:15;;;;;;;9.10;5.15;;;;;;;6.61;100.00;101944.09;5097614;27;98094;-29
2022/11/29 07:30:01;;;;;;;11.32;5.63;;;;;;;6.59;100.00;101945.94;5097787;27;96685;-33
2022/11/29 07:32:59;;;;;;;11.68;5.10;;;;;;;6.61;100.00;101951.28;5078758;27;96818;-30
2022/11/29 07:35:46;;;;;;;5.63;3.90;;;;;;;6.61;100.00;101952.16;5078524;27;101398;-30
2022/11/29 07:38:39;;;;;;;8.63;4.68;;;;;;;6.62;100.00;101962.00;5096556;27;97832;-29
2022/11/29 07:41:39;;;;;;;8.55;4.90;;;;;;;6.61;100.00;101965.63;5095676;27;97096;-30
2022/11/29 07:44:34;;;;;;;7.72;4.22;;;;;;;6.60;100.00;101969.22;5053577;27;96888;-30
2022/11/29 07:46:59;;;;;;;9.07;4.10;;;;;;;6.62;100.00;101970.06;5094982;27;98414;-31
2022/11/29 07:49:24;;;;;;;9.75;4.55;;;;;;;6.62;100.00;101978.16;5094469;27;97780;-30
2022/11/29 07:51:50;;;;;;;9.40;5.38;;;;;;;6.63;100.00;101977.25;5092513;27;97834;-33
2022/11/29 07:54:17;;;;;;;12.43;5.75;;;;;;;6.64;100.00;101973.59;5093606;27;96967;-32
2022/11/29 07:56:42;;;;;;;9.85;4.85;;;;;;;6.64;100.00;101979.00;5076085;27;100999;-30
2022/11/29 07:59:11;;;;;;;15.25;5.07;;;;;;;6.63;100.00;101982.63;5095204;27;99481;-30
2022/11/29 08:01:39;;;;;;;10.68;5.80;;;;;;;6.68;100.00;101986.06;5076707;27;96991;-31
2022/11/29 08:04:06;;;;;;;9.48;5.05;;;;;;;6.70;100.00;101981.53;5095319;27;97003;-30
2022/11/29 08:06:31;;;;;;;15.32;5.95;;;;;;;6.70;100.00;101976.16;5096206;27;99419;-30
2022/11/29 08:08:57;;;;;;;9.65;4.05;;;;;;;6.71;100.00;101983.28;5096789;27;106487;-30
2022/11/29 08:11:23;;;;;;;10.02;5.93;;;;;;;6.71;100.00;101983.28;5078335;27;96560;-30
2022/11/29 08:13:48;;;;;;;15.80;4.72;;;;;;;6.74;100.00;101988.56;5097072;27;96890;-30
2022/11/29 08:16:17;;;;;;;13.02;5.00;;;;;;;6.76;100.00;101986.72;5095971;27;105549;-30
2022/11/29 08:18:43;;;;;;;8.20;4.78;;;;;;;6.76;100.00;101997.50;5077822;27;101062;-29
2022/11/29 08:21:09;;;;;;;6.22;3.78;;;;;;;6.78;100.00;101995.66;5077922;27;96784;-30
2022/11/29 08:23:34;;;;;;;8.38;4.70;;;;;;;6.78;100.00;101992.09;5096603;27;96772;-30
2022/11/29 08:26:01;;;;;;;6.32;4.15;;;;;;;6.83;100.00;101991.97;5096589;27;97496;-30
2022/11/29 08:28:27;;;;;;;8.00;4.53;;;;;;;6.79;100.00;101997.44;5077535;27;100649;-30
2022/11/29 08:31:04;;;;;;;9.05;4.40;;;;;;;6.80;100.00;102006.41;5096445;27;96514;-31
2022/11/29 08:33:30;;;;;;;8.55;4.15;;;;;;;6.81;100.00;102008.16;5078417;27;96856;-30
2022/11/29 08:35:55;;;;;;;8.80;4.53;;;;;;;6.83;100.00;102002.72;5096410;27;98070;-30
2022/11/29 08:38:21;;;;;;;7.72;4.45;;;;;;;6.88;100.00;102011.56;5096219;27;97426;-30
2022/11/29 08:40:46;;;;;;;12.18;4.88;;;;;;;6.88;100.00;102014.25;5096236;27;96774;-31
2022/11/29 08:43:11;;;;;;;6.03;3.67;;;;;;;6.90;100.00;102009.72;5096557;27;96859;-30
2022/11/29 08:45:37;;;;;;;7.68;4.10;;;;;;;6.92;100.00;102011.44;5096348;27;97555;-30
2022/11/29 08:48:02;;;;;;;11.50;4.90;;;;;;;6.93;100.00;102015.88;5095771;27;112689;-30
2022/11/29 08:50:28;;;;;;;8.20;3.58;;;;;;;6.96;100.00;102023.00;5096235;27;96582;-30
2022/11/29 08:55:39;;;;;;;9.30;5.20;;;;;;;6.97;100.00;102028.34;5096615;27;97037;-29
2022/11/29 08:58:23;;;;;;;6.22;4.50;;;;;;;6.96;100.00;102028.38;5077817;27;100741;-29
2022/11/29 09:00:49;;;;;;;12.02;4.88;;;;;;;7.01;100.00;102030.03;5077661;27;96603;-31
2022/11/29 09:06:04;;;;;;;12.70;5.80;;;;;;;7.04;100.00;102047.94;5095934;27;97023;-30
2022/11/29 09:08:29;;;;;;;10.67;4.63;;;;;;;7.07;100.00;102055.91;5077210;27;101037;-29
2022/11/29 09:10:54;;;;;;;11.65;4.47;;;;;;;7.04;100.00;102047.06;5096024;27;96729;-29
2022/11/29 09:13:20;;;;;;;7.25;4.45;;;;;;;7.08;100.00;102048.72;5096142;27;96790;-29
2022/11/29 09:15:45;;;;;;;8.73;4.55;;;;;;;7.07;100.00;102055.03;5076994;27;98064;-30
2022/11/29 09:18:11;;;;;;;9.27;4.65;;;;;;;7.05;100.00;102056.91;5095229;27;98712;-29
2022/11/29 09:20:36;;;;;;;5.63;3.35;;;;;;;7.05;100.00;102060.47;5095381;27;96482;-31
2022/11/29 09:23:01;;;;;;;7.32;4.13;;;;;;;7.06;100.00;102054.16;5096168;27;96807;-30
2022/11/29 09:25:27;;;;;;;7.38;4.25;;;;;;;7.09;100.00;102048.69;5095176;27;107049;-29
2022/11/29 09:27:56;;;;;;;9.35;4.63;;;;;;;7.08;100.00;102067.56;5095587;27;99183;-30
2022/11/29 09:30:21;;;;;;;9.10;4.25;;;;;;;7.09;100.00;102062.16;5076380;27;96738;-29
2022/11/29 09:32:46;;;;;;;6.22;3.55;;;;;;;7.13;100.00;102066.53;5095349;27;102869;-30
2022/11/29 09:35:12;;;;;;;10.45;4.25;;;;;;;7.15;100.00;102062.00;5095494;27;99386;-29
2022/11/29 09:37:41;;;;;;;7.38;4.45;;;;;;;7.18;100.00;102075.38;5095623;27;97975;-30
2022/11/29 09:40:14;;;;;;;5.53;3.20;;;;;;;7.16;100.00;102069.16;5078899;27;96865;-29
2022/11/29 09:43:01;;;;;;;11.75;3.95;;;;;;;7.20;100.00;102073.53;5080591;27;96725;-29
2022/11/29 09:45:37;;;;;;;6.68;3.30;;;;;;;7.25;100.00;102080.63;5080521;27;100957;-30
2022/11/29 09:48:21;;;;;;;7.72;4.22;;;;;;;7.22;100.00;102073.47;5099882;27;97424;-30
2022/11/29 09:50:56;;;;;;;8.10;3.72;;;;;;;7.26;100.00;102085.06;5080731;27;96603;-30
2022/11/29 09:53:34;;;;;;;9.02;4.07;;;;;;;7.28;100.00;102080.53;5080668;27;96857;-30
2022/11/29 09:56:26;;;;;;;7.55;3.75;;;;;;;7.30;100.00;102093.03;5098622;27;97379;-30
2022/11/29 09:59:17;;;;;;;9.35;4.70;;;;;;;7.32;100.00;102084.91;5080063;27;101219;-31
2022/11/29 10:02:12;;;;;;;9.20;3.28;;;;;;;7.32;100.00;102093.00;5080536;27;96720;-30
2022/11/29 10:04:43;;;;;;;6.43;3.60;;;;;;;7.33;100.00;102084.84;5080345;27;96948;-29
2022/11/29 10:07:26;;;;;;;8.10;4.13;;;;;;;7.32;100.00;102084.91;5079989;27;101052;-30
2022/11/29 10:09:58;;;;;;;9.55;4.07;;;;;;;7.36;100.00;102091.94;5079964;27;100833;-30
2022/11/29 10:12:51;;;;;;;6.63;3.50;;;;;;;7.37;100.00;102085.66;5080220;27;96695;-31
2022/11/29 10:15:26;;;;;;;;;;;;;;;7.40;100.00;102096.34;5086250;27;97008;-29
2022/11/29 10:18:17;;;;;;;5.57;2.63;;;;;;;7.42;100.00;102089.09;5080119;27;101347;-30
2022/11/29 10:20:44;;;;;;;4.68;2.90;;;;;;;7.41;100.00;102092.69;5079279;27;100850;-29
2022/11/29 10:23:35;;;;;;;8.10;4.95;;;;;;;7.44;100.00;102098.91;5079528;27;96648;-32
2022/11/29 10:26:00;;;;;;;9.27;3.95;;;;;;;7.43;100.00;102099.81;5098449;27;96811;-29
2022/11/29 10:28:32;;;;;;;6.70;3.40;;;;;;;7.44;100.00;102098.03;5098047;27;111647;-29
2022/11/29 10:31:20;;;;;;;8.63;3.45;;;;;;;7.43;100.00;102102.50;5079706;27;101368;-31
2022/11/29 10:33:47;;;;;;;8.20;3.65;;;;;;;7.42;100.00;102097.19;5079746;27;96516;-30
2022/11/29 10:36:28;;;;;;;7.72;4.20;;;;;;;7.47;100.00;102097.94;5079901;27;96848;-32
2022/11/29 10:39:02;;;;;;;6.78;3.20;;;;;;;7.47;100.00;102095.25;5098180;27;97532;-30
2022/11/29 10:41:28;;;;;;;6.70;3.28;;;;;;;7.53;100.00;102092.38;5080004;27;100821;-30
2022/11/29 10:43:56;;;;;;;9.05;3.38;;;;;;;7.54;100.00;102083.34;5098452;27;96513;-30
2022/11/29 10:46:34;;;;;;;6.20;3.10;;;;;;;7.50;100.00;102086.19;5098307;27;96763;-30
2022/11/29 10:49:12;;;;;;;8.70;3.63;;;;;;;7.51;100.00;102091.53;5079066;27;100748;-30
2022/11/29 10:51:37;;;;;;;4.97;2.88;;;;;;;7.53;100.00;102080.69;5079201;27;100823;-30
2022/11/29 10:54:26;;;;;;;8.30;4.15;;;;;;;7.56;100.00;102083.31;5079574;27;96552;-30
2022/11/29 10:56:54;;;;;;;5.25;3.13;;;;;;;7.57;100.00;102088.63;5079579;27;96690;-29
2022/11/29 10:59:25;;;;;;;4.00;2.60;;;;;;;7.58;100.00;102087.72;5079204;27;100699;-29
2022/11/29 11:01:51;;;;;;;8.05;3.15;;;;;;;7.57;100.00;102088.63;5079200;27;100968;-30
2022/11/29 11:04:25;;;;;;;5.80;3.17;;;;;;;7.62;100.00;102097.47;5098254;27;96622;-29
2022/11/29 11:07:34;;;;;;;7.68;2.85;;;;;;;7.70;100.00;102099.06;5079969;27;96798;-29
2022/11/29 11:10:03;;;;;;;7.25;3.45;;;;;;;7.67;100.00;102105.44;5043602;27;99233;-32
2022/11/29 11:12:31;;;;;;;8.45;2.88;;;;;;;7.68;100.00;102096.44;5095719;27;99135;-31
2022/11/29 11:15:29;;;;;;;6.35;2.95;;;;;;;7.64;100.00;102114.50;5077878;27;97027;-30
2022/11/29 11:18:04;;;;;;;9.05;3.90;;;;;;;7.70;100.00;102107.16;5078343;27;97208;-30
2022/11/29 11:20:31;;;;;;;9.43;3.15;;;;;;;7.71;100.00;102103.53;5078578;27;101353;-30
2022/11/29 11:23:06;;;;;;;11.73;3.75;;;;;;;7.74;100.00;102104.31;5078915;27;100734;-30
2022/11/29 11:25:35;;;;;;;5.50;3.15;;;;;;;7.72;100.00;102108.88;5079161;27;96655;-30
2022/11/29 11:28:20;;;;;;;7.00;3.35;;;;;;;7.73;100.00;102110.66;5078939;27;96825;-31
2022/11/29 11:30:51;;;;;;;4.93;2.78;;;;;;;7.70;100.00;102104.47;5078553;27;100735;-30
2022/11/29 11:33:19;;;;;;;6.47;3.33;;;;;;;7.74;100.00;102116.94;5078928;27;101015;-29
2022/11/29 11:36:12;;;;;;;6.65;3.17;;;;;;;7.79;100.00;102114.97;5097394;27;96718;-30
2022/11/29 11:38:55;;;;;;;12.07;3.13;;;;;;;7.78;100.00;102113.22;5082617;27;97186;-29
2022/11/29 11:44:24;;;;;;;8.25;3.60;;;;;;;7.81;100.00;102119.41;5096123;27;97011;-30
2022/11/29 11:46:50;;;;;;;4.93;2.70;;;;;;;7.80;100.00;102119.47;5077694;27;97119;-33
2022/11/29 11:49:28;;;;;;;6.90;3.97;;;;;;;7.79;100.00;102117.69;5077921;27;97074;-30
2022/11/29 11:51:53;;;;;;;9.10;3.72;;;;;;;7.84;100.00;102123.81;5077992;27;101317;-30
2022/11/29 11:54:19;;;;;;;7.90;3.85;;;;;;;7.87;100.00;102121.94;5097135;27;97253;-30
2022/11/29 11:56:44;;;;;;;7.85;3.78;;;;;;;7.86;100.00;102132.75;5095304;27;97126;-30
2022/11/29 11:59:20;;;;;;;7.70;3.13;;;;;;;7.85;100.00;102136.38;5076472;27;96833;-32
2022/11/29 12:01:46;;;;;;;9.30;3.47;;;;;;;7.84;100.00;102132.81;5075437;27;99014;-30
2022/11/29 12:04:28;;;;;;;9.68;3.95;;;;;;;7.81;100.00;102124.78;5075725;27;101020;-30
2022/11/29 12:07:01;;;;;;;10.35;4.32;;;;;;;7.83;100.00;102125.63;5075849;27;97126;-31
2022/11/29 12:09:34;;;;;;;7.00;4.05;;;;;;;7.83;100.00;102133.72;5075971;27;97056;-30
2022/11/29 12:12:37;;;;;;;7.70;4.15;;;;;;;7.84;100.00;102142.69;5077770;27;101241;-30
2022/11/29 12:15:09;;;;;;;7.30;3.55;;;;;;;7.77;100.00;102136.63;5096294;27;97497;-29